TimeEDT,TemperatureF,Dew PointF,Humidity,Sea Level PressureIn,VisibilityMPH,Wind Direction,Wind SpeedMPH,Gust SpeedMPH,PrecipitationIn,Events,Conditions,WindDirDegrees,DateUTC
12:51 AM,73.0,60.1,64,29.96,10.0,South,6.9,-,N/A,,Overcast,170,2013-06-16 04:51:00
1:51 AM,73.0,61.0,66,29.95,10.0,South,6.9,-,N/A,,Overcast,190,2013-06-16 05:51:00
2:51 AM,72.0,61.0,68,29.94,10.0,SSW,8.1,-,N/A,,Overcast,200,2013-06-16 06:51:00
3:51 AM,72.0,62.1,71,29.93,10.0,SSW,9.2,-,N/A,,Overcast,210,2013-06-16 07:51:00
4:51 AM,71.1,62.1,73,29.92,10.0,South,6.9,-,N/A,,Overcast,190,2013-06-16 08:51:00
5:51 AM,71.1,64.0,78,29.94,10.0,WSW,6.9,-,0.01,Rain,Light Rain,250,2013-06-16 09:51:00
6:51 AM,72.0,64.0,76,29.94,10.0,Calm,Calm,-,0.00,,Overcast,0,2013-06-16 10:51:00
7:51 AM,70.0,66.0,87,29.96,10.0,SSW,6.9,-,0.00,,Mostly Cloudy,200,2013-06-16 11:51:00
8:51 AM,72.0,66.0,81,29.96,10.0,SW,4.6,-,0.00,Rain,Light Rain,220,2013-06-16 12:51:00
9:51 AM,72.0,64.0,76,29.96,10.0,WSW,12.7,-,0.00,Rain,Light Rain,250,2013-06-16 13:51:00
10:51 AM,72.0,64.9,78,29.96,10.0,SW,16.1,-,0.01,,Overcast,230,2013-06-16 14:51:00
11:51 AM,73.0,64.9,76,29.96,10.0,SW,16.1,19.6,N/A,,Overcast,220,2013-06-16 15:51:00
12:05 PM,71.6,64.4,78,29.98,10.0,SW,15.0,24.2,0.00,Rain,Light Rain,220,2013-06-16 16:05:00
12:25 PM,71.6,66.2,83,29.98,10.0,SW,12.7,-,0.00,Rain,Light Rain,230,2013-06-16 16:25:00
12:51 PM,72.0,66.0,81,29.96,10.0,SW,12.7,-,0.00,Rain,Light Rain,230,2013-06-16 16:51:00
1:51 PM,73.0,64.0,73,29.95,10.0,SW,11.5,-,0.00,,Overcast,230,2013-06-16 17:51:00
2:51 PM,73.9,64.0,71,29.96,10.0,SW,17.3,24.2,0.00,,Overcast,230,2013-06-16 18:51:00
3:51 PM,78.1,63.0,60,29.95,10.0,WSW,16.1,27.6,N/A,,Mostly Cloudy,240,2013-06-16 19:51:00
4:51 PM,78.1,64.0,62,29.94,10.0,SW,17.3,-,N/A,,Mostly Cloudy,230,2013-06-16 20:51:00
5:51 PM,78.1,64.9,64,29.93,10.0,WSW,11.5,-,N/A,,Overcast,250,2013-06-16 21:51:00
6:51 PM,78.1,64.9,64,29.92,10.0,WSW,13.8,19.6,N/A,,Overcast,250,2013-06-16 22:51:00
7:51 PM,77.0,64.9,66,29.93,10.0,WSW,12.7,-,N/A,,Overcast,240,2013-06-16 23:51:00
8:51 PM,75.9,64.9,69,29.93,10.0,SW,13.8,19.6,N/A,,Mostly Cloudy,230,2013-06-17 00:51:00
9:51 PM,73.9,64.9,73,29.94,10.0,SW,9.2,-,N/A,,Mostly Cloudy,230,2013-06-17 01:51:00
10:51 PM,72.0,64.9,78,29.95,10.0,SSW,5.8,-,N/A,,Mostly Cloudy,200,2013-06-17 02:51:00
11:51 PM,71.1,64.9,81,29.95,10.0,SW,4.6,-,N/A,,Scattered Clouds,220,2013-06-17 03:51:00